Time;durP1;ratioP1;P1;durP2;ratioP2;P2;SDS_P1;SDS_P2;PMS_P1;PMS_P2;Temp;Humidity;BMP_temperature;BMP_pressure;BME280_temperature;BME280_humidity;BME280_pressure;Samples;Min_cycle;Max_cycle;Signal;HPM_P1;HPM_P2
2023/06/02 00:01:13;;;;;;;10.82;4.28;;;10.20;99.90;;;;;;5069728;28;20097;-77
2023/06/02 00:03:40;;;;;;;11.57;3.92;;;10.20;99.90;;;;;;5053769;28;20041;-78
2023/06/02 00:06:09;;;;;;;11.75;3.65;;;10.10;99.90;;;;;;5041264;28;20039;-78
2023/06/02 00:08:38;;;;;;;12.05;4.18;;;10.20;99.90;;;;;;5036846;28;20044;-77
2023/06/02 00:11:06;;;;;;;11.88;3.78;;;10.20;99.90;;;;;;5070205;28;20133;-78
2023/06/02 00:13:35;;;;;;;12.32;3.80;;;10.20;99.90;;;;;;5037812;28;20505;-79
2023/06/02 00:16:04;;;;;;;11.70;3.92;;;10.10;99.90;;;;;;5032053;28;20033;-78
2023/06/02 00:18:36;;;;;;;12.20;3.70;;;10.20;99.90;;;;;;5041497;28;20512;-78
2023/06/02 00:21:02;;;;;;;9.63;3.72;;;10.20;99.90;;;;;;5038352;28;20401;-78
2023/06/02 00:23:29;;;;;;;11.30;4.18;;;10.20;99.90;;;;;;5036985;28;20064;-78
2023/06/02 00:25:56;;;;;;;12.98;3.90;;;10.10;99.90;;;;;;5017329;28;20043;-78
2023/06/02 00:28:24;;;;;;;15.95;4.45;;;10.20;99.90;;;;;;5027219;28;20110;-78
2023/06/02 00:30:51;;;;;;;12.68;3.92;;;10.10;99.90;;;;;;5036524;28;20055;-78
2023/06/02 00:33:18;;;;;;;12.00;3.80;;;10.10;99.90;;;;;;5040528;28;20071;-78
2023/06/02 00:35:43;;;;;;;14.40;3.80;;;10.10;99.90;;;;;;5035100;28;20044;-78
2023/06/02 00:38:12;;;;;;;12.07;4.88;;;10.10;99.90;;;;;;5041809;28;20036;-78
2023/06/02 00:40:40;;;;;;;13.90;4.20;;;10.10;99.90;;;;;;5036934;28;20052;-78
2023/06/02 00:43:06;;;;;;;12.80;4.40;;;10.10;99.90;;;;;;5021060;28;20037;-78
2023/06/02 00:45:32;;;;;;;14.18;4.35;;;10.10;99.90;;;;;;5046151;28;20055;-77
2023/06/02 00:48:01;;;;;;;15.50;4.38;;;10.10;99.90;;;;;;5038003;28;20087;-78
2023/06/02 00:50:30;;;;;;;12.88;3.88;;;10.10;99.90;;;;;;5028522;28;20072;-78
2023/06/02 00:52:57;;;;;;;18.63;4.78;;;10.10;99.90;;;;;;5040598;28;20041;-78
2023/06/02 00:55:23;;;;;;;14.45;4.47;;;10.10;99.90;;;;;;5040823;28;20087;-78
2023/06/02 00:57:51;;;;;;;13.00;3.70;;;10.00;99.90;;;;;;5040143;28;20069;-78
2023/06/02 01:00:18;;;;;;;15.50;4.25;;;10.00;99.90;;;;;;5077094;28;20040;-77
2023/06/02 01:02:45;;;;;;;11.77;3.92;;;10.10;99.90;;;;;;5091370;28;20055;-78
2023/06/02 01:05:12;;;;;;;13.43;4.40;;;10.00;99.90;;;;;;5057341;28;20048;-78
2023/06/02 01:07:46;;;;;;;15.40;4.32;;;10.00;99.90;;;;;;5048201;28;20490;-78
2023/06/02 01:10:20;;;;;;;16.23;4.13;;;10.00;99.90;;;;;;5039382;28;20517;-78
2023/06/02 01:12:46;;;;;;;11.70;3.95;;;10.00;99.90;;;;;;5045177;28;20207;-77
2023/06/02 01:15:14;;;;;;;13.90;3.92;;;10.00;99.90;;;;;;5046062;28;20040;-77
2023/06/02 01:17:46;;;;;;;15.70;4.25;;;10.00;99.90;;;;;;5039614;28;20414;-78
2023/06/02 01:20:13;;;;;;;13.60;4.38;;;10.00;99.90;;;;;;5040301;28;20039;-78
2023/06/02 01:22:47;;;;;;;13.38;4.28;;;10.00;99.90;;;;;;5072577;28;20487;-77
2023/06/02 01:25:21;;;;;;;11.52;3.83;;;9.90;99.90;;;;;;5047017;28;20051;-78
2023/06/02 01:27:50;;;;;;;13.77;4.38;;;10.00;99.90;;;;;;5056433;28;20040;-78
2023/06/02 01:30:20;;;;;;;16.20;4.65;;;10.00;99.90;;;;;;5073210;28;20050;-78
2023/06/02 01:33:05;;;;;;;17.52;4.35;;;10.00;99.90;;;;;;5038927;28;20056;-78
2023/06/02 01:35:34;;;;;;;14.05;4.32;;;10.00;99.90;;;;;;5040160;28;20398;-77
2023/06/02 01:38:05;;;;;;;15.95;4.32;;;9.90;99.90;;;;;;5039592;28;20181;-78
2023/06/02 01:40:35;;;;;;;14.27;3.85;;;9.90;99.90;;;;;;5036443;28;20356;-78
2023/06/02 01:43:02;;;;;;;13.45;4.10;;;9.90;99.90;;;;;;5046085;28;20048;-77
2023/06/02 01:45:30;;;;;;;15.98;4.72;;;9.90;99.90;;;;;;5031611;28;20505;-78
2023/06/02 01:48:07;;;;;;;14.65;4.03;;;9.90;99.90;;;;;;5039297;28;20044;-78
2023/06/02 01:50:35;;;;;;;14.30;3.85;;;9.90;99.90;;;;;;5039022;28;20075;-78
2023/06/02 01:53:05;;;;;;;13.65;4.03;;;9.90;99.90;;;;;;5038779;28;20036;-78
2023/06/02 01:55:31;;;;;;;14.32;4.15;;;9.90;99.90;;;;;;5047980;28;20433;-78
2023/06/02 01:57:56;;;;;;;15.20;4.05;;;9.90;99.90;;;;;;5037865;28;20032;-78
2023/06/02 02:00:22;;;;;;;15.95;4.68;;;10.00;99.90;;;;;;5073988;28;20174;-77
2023/06/02 02:02:49;;;;;;;17.17;4.65;;;9.90;99.90;;;;;;5038713;28;20557;-78
2023/06/02 02:05:15;;;;;;;16.55;4.95;;;9.90;99.90;;;;;;5036535;28;20048;-77
2023/06/02 02:07:44;;;;;;;13.18;4.20;;;9.90;99.90;;;;;;5031245;28;20123;-78
2023/06/02 02:10:11;;;;;;;13.95;3.88;;;9.90;99.90;;;;;;5039394;28;20067;-78
2023/06/02 02:12:37;;;;;;;15.55;4.18;;;9.90;99.90;;;;;;5051673;22;20041;-77
2023/06/02 02:15:04;;;;;;;19.25;4.30;;;9.90;99.90;;;;;;5027274;28;20029;-77
2023/06/02 02:17:30;;;;;;;14.52;4.45;;;9.80;99.90;;;;;;5051036;28;20076;-77
2023/06/02 02:19:56;;;;;;;13.18;4.13;;;9.90;99.90;;;;;;5047299;28;20071;-77
2023/06/02 02:22:23;;;;;;;12.77;3.38;;;9.80;99.90;;;;;;5035660;28;20041;-77
2023/06/02 02:24:50;;;;;;;14.95;4.28;;;9.80;99.90;;;;;;5032341;28;20038;-77
2023/06/02 02:27:16;;;;;;;13.45;4.30;;;9.80;99.90;;;;;;5047507;28;20041;-77
2023/06/02 02:29:42;;;;;;;14.52;4.22;;;9.80;99.90;;;;;;5039706;28;20041;-77
2023/06/02 02:32:07;;;;;;;14.65;4.45;;;9.80;99.90;;;;;;5051700;28;20037;-77
2023/06/02 02:34:33;;;;;;;14.50;4.25;;;9.80;99.90;;;;;;5025065;28;20046;-77
2023/06/02 02:37:02;;;;;;;16.95;3.85;;;9.70;99.90;;;;;;5035719;28;20032;-77
2023/06/02 02:39:29;;;;;;;11.02;3.40;;;9.70;99.90;;;;;;5035690;28;20033;-77
2023/06/02 02:41:54;;;;;;;14.77;3.97;;;9.70;99.90;;;;;;5019048;28;20055;-77
2023/06/02 02:44:20;;;;;;;14.07;4.30;;;9.70;99.90;;;;;;5043973;28;20498;-77
2023/06/02 02:46:45;;;;;;;12.77;3.78;;;9.70;99.90;;;;;;5019004;28;20095;-77
2023/06/02 02:49:11;;;;;;;13.57;3.83;;;9.70;99.90;;;;;;5035584;28;20132;-77
2023/06/02 02:51:37;;;;;;;14.60;4.68;;;9.60;99.90;;;;;;5034274;28;20043;-77
2023/06/02 02:54:03;;;;;;;14.32;4.38;;;9.60;99.90;;;;;;5013913;28;20037;-77
2023/06/02 02:56:30;;;;;;;13.73;3.88;;;9.60;99.90;;;;;;5031724;28;20044;-77
2023/06/02 02:58:58;;;;;;;15.77;4.43;;;9.60;99.90;;;;;;5021280;28;20046;-77
2023/06/02 03:01:26;;;;;;;14.57;4.13;;;9.60;99.90;;;;;;5039102;28;20047;-77
2023/06/02 03:03:53;;;;;;;17.67;4.05;;;9.60;99.90;;;;;;5051224;28;20186;-77
2023/06/02 03:06:19;;;;;;;14.30;3.83;;;9.60;99.90;;;;;;5051501;28;20048;-77
2023/06/02 03:08:48;;;;;;;10.65;3.60;;;9.60;99.90;;;;;;5035082;28;20040;-77
2023/06/02 03:11:14;;;;;;;13.05;4.03;;;9.60;99.90;;;;;;5049940;28;20047;-77
2023/06/02 03:13:39;;;;;;;13.60;3.90;;;9.60;99.90;;;;;;5040991;28;20376;-77
2023/06/02 03:16:05;;;;;;;17.13;4.10;;;9.60;99.90;;;;;;5022796;28;20064;-77
2023/06/02 03:18:31;;;;;;;15.23;4.28;;;9.60;99.90;;;;;;5024675;28;20452;-77
2023/06/02 03:20:58;;;;;;;15.38;4.47;;;9.60;99.90;;;;;;5051380;28;20036;-77
2023/06/02 03:23:25;;;;;;;14.68;4.10;;;9.50;99.90;;;;;;5027435;28;20041;-77
2023/06/02 03:25:51;;;;;;;10.75;3.72;;;9.60;99.90;;;;;;5030787;28;20037;-77
2023/06/02 03:28:18;;;;;;;13.80;4.32;;;9.60;99.90;;;;;;5021713;28;20132;-77
2023/06/02 03:30:44;;;;;;;13.02;3.97;;;9.60;99.90;;;;;;5026043;28;20045;-77
2023/06/02 03:33:09;;;;;;;15.55;3.83;;;9.50;99.90;;;;;;5040155;28;20075;-77
2023/06/02 03:35:35;;;;;;;15.00;3.95;;;9.60;99.90;;;;;;5035743;28;20071;-77
2023/06/02 03:38:01;;;;;;;12.15;3.90;;;9.60;99.90;;;;;;5035625;28;20033;-77
2023/06/02 03:40:26;;;;;;;14.70;4.20;;;9.60;99.90;;;;;;5051035;28;20123;-77
2023/06/02 03:42:52;;;;;;;16.63;4.38;;;9.60;99.90;;;;;;5033599;28;20059;-77
2023/06/02 03:45:18;;;;;;;13.02;4.25;;;9.60;99.90;;;;;;5034372;28;20037;-77
2023/06/02 03:47:43;;;;;;;14.77;4.10;;;9.70;99.90;;;;;;5034159;28;20036;-77
2023/06/02 03:50:09;;;;;;;14.02;3.63;;;9.70;99.90;;;;;;5042427;28;20072;-77
2023/06/02 03:52:35;;;;;;;17.30;4.20;;;9.70;99.90;;;;;;5016659;28;20037;-77
2023/06/02 03:55:00;;;;;;;14.40;4.50;;;9.70;99.90;;;;;;5041151;28;20052;-77
2023/06/02 03:57:26;;;;;;;14.57;3.97;;;9.80;99.90;;;;;;5034495;28;20044;-77
2023/06/02 03:59:51;;;;;;;12.35;3.78;;;9.80;99.90;;;;;;5034376;28;20491;-77
2023/06/02 04:02:17;;;;;;;16.00;4.13;;;9.80;99.90;;;;;;5043112;28;20064;-77
2023/06/02 04:04:43;;;;;;;14.10;4.60;;;9.80;99.90;;;;;;5046036;28;20496;-77
2023/06/02 04:07:08;;;;;;;15.90;4.22;;;9.80;99.90;;;;;;5039769;28;20183;-77
2023/06/02 04:09:34;;;;;;;15.95;4.35;;;9.90;99.90;;;;;;5030344;28;20044;-77
2023/06/02 04:12:00;;;;;;;13.43;3.95;;;9.90;99.90;;;;;;5035186;28;20039;-77
2023/06/02 04:14:27;;;;;;;11.85;4.40;;;9.90;99.90;;;;;;5041586;28;20072;-77
2023/06/02 04:16:53;;;;;;;18.33;3.90;;;9.90;99.90;;;;;;5032878;28;20044;-78
2023/06/02 04:19:19;;;;;;;14.05;4.28;;;10.00;99.90;;;;;;5041426;28;20478;-77
2023/06/02 04:21:44;;;;;;;14.80;4.50;;;10.00;99.90;;;;;;5024790;28;20045;-78
2023/06/02 04:24:10;;;;;;;13.05;3.92;;;10.00;99.90;;;;;;5025116;28;20067;-77
2023/06/02 04:26:36;;;;;;;15.80;4.20;;;10.00;99.90;;;;;;5037019;28;20053;-77
2023/06/02 04:29:01;;;;;;;14.15;4.22;;;10.00;99.90;;;;;;5046221;28;20076;-77
2023/06/02 04:31:49;;;;;;;13.25;4.00;;;10.10;99.90;;;;;;5046106;28;20037;-77
2023/06/02 04:34:15;;;;;;;15.80;4.53;;;10.10;99.90;;;;;;5033711;28;20068;-77
2023/06/02 04:36:42;;;;;;;14.15;4.85;;;10.20;99.90;;;;;;5028487;28;20048;-77
2023/06/02 04:39:09;;;;;;;15.52;4.30;;;10.20;99.90;;;;;;5021266;28;20048;-77
2023/06/02 04:41:36;;;;;;;13.65;4.35;;;10.20;99.90;;;;;;5024871;28;20165;-77
2023/06/02 04:44:02;;;;;;;14.27;4.05;;;10.20;99.90;;;;;;5033710;28;20051;-77
2023/06/02 04:46:28;;;;;;;18.05;4.47;;;10.30;99.90;;;;;;5050008;28;20037;-77
2023/06/02 04:48:54;;;;;;;17.10;4.05;;;10.30;99.90;;;;;;5016380;28;20056;-77
2023/06/02 04:51:26;;;;;;;15.07;4.20;;;10.30;99.90;;;;;;5028627;28;20380;-77
2023/06/02 04:53:51;;;;;;;15.95;4.53;;;10.40;99.90;;;;;;5059727;28;20037;-77
2023/06/02 04:56:17;;;;;;;15.55;4.13;;;10.40;99.90;;;;;;5028870;28;20059;-77
2023/06/02 04:58:43;;;;;;;15.48;4.03;;;10.40;99.90;;;;;;5046421;28;20094;-77
2023/06/02 05:01:08;;;;;;;16.83;4.47;;;10.50;99.90;;;;;;5039967;28;20049;-77
2023/06/02 05:03:34;;;;;;;14.43;4.38;;;10.50;99.90;;;;;;5029522;28;20248;-77
2023/06/02 05:05:59;;;;;;;15.65;4.40;;;10.50;99.90;;;;;;5032724;28;20048;-77
2023/06/02 05:08:25;;;;;;;16.05;4.40;;;10.60;99.90;;;;;;5007646;28;20102;-77
2023/06/02 05:10:50;;;;;;;11.88;4.00;;;10.60;99.90;;;;;;5032995;28;20068;-77
2023/06/02 05:13:17;;;;;;;14.80;5.07;;;10.60;99.90;;;;;;5032228;28;20059;-77
2023/06/02 05:15:43;;;;;;;15.20;4.20;;;10.70;99.90;;;;;;5024989;28;20044;-77
2023/06/02 05:18:09;;;;;;;15.57;4.30;;;10.70;99.90;;;;;;5033461;28;20049;-77
2023/06/02 05:20:35;;;;;;;14.82;4.00;;;10.70;99.90;;;;;;5023908;28;20047;-77
2023/06/02 05:23:01;;;;;;;18.40;4.35;;;10.80;99.90;;;;;;5048763;28;20033;-77
2023/06/02 05:25:26;;;;;;;14.10;4.30;;;10.80;99.90;;;;;;5029937;28;20563;-77
2023/06/02 05:27:52;;;;;;;16.98;4.38;;;10.90;99.90;;;;;;5032160;28;20037;-77
2023/06/02 05:30:17;;;;;;;16.73;4.80;;;10.90;99.90;;;;;;5036814;28;20462;-77
2023/06/02 05:32:44;;;;;;;15.80;4.53;;;11.00;99.90;;;;;;5032157;28;20037;-77
2023/06/02 05:35:09;;;;;;;15.55;4.43;;;11.10;99.90;;;;;;5036641;28;20033;-78
2023/06/02 05:37:35;;;;;;;17.52;4.88;;;11.10;99.90;;;;;;5033757;28;20042;-77
2023/06/02 05:40:01;;;;;;;12.30;4.07;;;11.20;99.90;;;;;;5030798;28;20065;-77
2023/06/02 05:42:27;;;;;;;15.32;4.30;;;11.20;99.90;;;;;;5029994;28;20050;-77
2023/06/02 05:44:52;;;;;;;14.38;4.80;;;11.20;99.90;;;;;;5028437;28;20417;-77
2023/06/02 05:47:18;;;;;;;16.98;4.40;;;11.30;99.90;;;;;;5014148;28;20033;-78
2023/06/02 05:49:44;;;;;;;14.80;4.85;;;11.30;99.90;;;;;;5044009;28;20391;-77
2023/06/02 05:52:09;;;;;;;14.68;4.13;;;11.40;99.90;;;;;;5052052;28;20499;-77
2023/06/02 05:54:35;;;;;;;18.23;5.18;;;11.50;99.90;;;;;;5044350;28;20083;-78
2023/06/02 05:57:01;;;;;;;16.15;4.57;;;11.50;99.90;;;;;;5033729;28;20029;-79
2023/06/02 05:59:27;;;;;;;13.48;3.92;;;11.60;99.90;;;;;;5019547;28;20132;-80
2023/06/02 06:01:53;;;;;;;17.67;4.75;;;11.70;99.90;;;;;;5026876;28;20119;-77
2023/06/02 06:04:18;;;;;;;16.63;4.63;;;11.80;99.90;;;;;;5051947;28;20124;-77
2023/06/02 06:06:44;;;;;;;15.25;4.82;;;11.80;99.90;;;;;;5040767;28;20072;-77
2023/06/02 06:09:10;;;;;;;17.73;4.35;;;11.90;99.90;;;;;;5028996;28;21351;-77
2023/06/02 06:11:36;;;;;;;16.63;4.57;;;12.00;99.90;;;;;;5030352;28;20044;-77
2023/06/02 06:14:02;;;;;;;13.27;4.38;;;12.00;99.90;;;;;;5039715;28;20087;-78
2023/06/02 06:16:28;;;;;;;16.92;4.53;;;12.10;99.90;;;;;;5032506;28;20037;-78
2023/06/02 06:18:55;;;;;;;15.90;4.40;;;12.10;99.90;;;;;;5052650;28;20029;-77
2023/06/02 06:21:20;;;;;;;15.82;5.03;;;12.20;99.90;;;;;;5047648;28;20033;-79
2023/06/02 06:23:46;;;;;;;16.15;4.55;;;12.30;99.90;;;;;;5033523;28;20052;-78
2023/06/02 06:26:11;;;;;;;14.48;4.40;;;12.40;99.90;;;;;;5034756;28;20407;-78
2023/06/02 06:28:41;;;;;;;17.15;4.18;;;12.50;99.90;;;;;;5060741;28;20037;-77
2023/06/02 06:31:07;;;;;;;18.17;4.38;;;12.60;99.90;;;;;;5063116;28;20037;-78
2023/06/02 06:33:32;;;;;;;15.95;4.22;;;12.70;99.90;;;;;;5062410;28;20045;-79
2023/06/02 06:35:58;;;;;;;12.18;3.83;;;12.80;99.90;;;;;;5034561;28;20037;-78
2023/06/02 06:38:24;;;;;;;16.83;4.63;;;12.90;99.90;;;;;;5035347;28;20083;-78
2023/06/02 06:40:49;;;;;;;15.55;4.93;;;13.00;99.90;;;;;;5052309;28;20120;-78
2023/06/02 06:43:15;;;;;;;15.68;4.75;;;13.10;99.90;;;;;;5047533;28;20041;-78
2023/06/02 06:45:42;;;;;;;16.05;4.63;;;13.20;99.90;;;;;;5050725;28;20051;-78
2023/06/02 06:48:07;;;;;;;17.50;4.60;;;13.20;99.90;;;;;;5017837;28;20140;-78
2023/06/02 06:50:33;;;;;;;16.67;4.25;;;13.40;99.90;;;;;;5016277;28;20478;-77
2023/06/02 06:53:00;;;;;;;17.90;4.85;;;13.40;99.90;;;;;;5034327;28;20033;-78
2023/06/02 06:55:26;;;;;;;17.02;5.30;;;13.40;99.90;;;;;;5027011;28;20227;-78
2023/06/02 06:57:52;;;;;;;16.58;5.43;;;13.60;99.90;;;;;;5034034;28;20115;-78
2023/06/02 07:00:17;;;;;;;15.70;5.25;;;13.70;99.90;;;;;;5039885;28;20095;-78
2023/06/02 07:02:44;;;;;;;13.63;4.78;;;13.70;99.90;;;;;;5017436;28;20033;-77
2023/06/02 07:05:09;;;;;;;16.90;4.45;;;13.70;99.90;;;;;;5035157;28;20120;-78
2023/06/02 07:07:35;;;;;;;16.63;4.40;;;13.90;99.90;;;;;;5018503;28;20140;-78
2023/06/02 07:10:01;;;;;;;20.00;4.85;;;14.00;99.90;;;;;;5011139;28;20032;-79
2023/06/02 07:12:27;;;;;;;15.80;4.35;;;14.10;99.90;;;;;;5066862;28;20045;-78
2023/06/02 07:14:54;;;;;;;17.60;4.53;;;14.10;99.90;;;;;;5046072;28;20101;-79
2023/06/02 07:17:19;;;;;;;16.65;4.60;;;14.20;99.90;;;;;;5034458;28;20029;-78
2023/06/02 07:19:45;;;;;;;15.18;4.45;;;14.10;99.90;;;;;;5032612;28;20037;-79
2023/06/02 07:22:11;;;;;;;18.08;4.93;;;14.10;99.90;;;;;;5040251;28;20044;-78
2023/06/02 07:24:36;;;;;;;15.38;5.22;;;14.10;99.90;;;;;;5018357;28;20403;-78
2023/06/02 07:27:03;;;;;;;15.32;4.80;;;14.10;99.90;;;;;;5051125;28;20045;-78
2023/06/02 07:29:29;;;;;;;16.13;4.88;;;14.10;99.90;;;;;;5018144;28;20124;-79
2023/06/02 07:31:54;;;;;;;18.02;4.90;;;14.10;99.90;;;;;;5051047;28;20120;-78
2023/06/02 07:34:20;;;;;;;15.65;4.78;;;14.10;99.90;;;;;;5010156;28;21442;-79
2023/06/02 07:36:48;;;;;;;21.17;5.78;;;14.10;99.90;;;;;;5017385;28;20496;-78
2023/06/02 07:39:14;;;;;;;15.40;5.13;;;14.10;99.90;;;;;;5034700;28;20040;-79
2023/06/02 07:41:40;;;;;;;14.10;4.82;;;14.20;99.90;;;;;;5034380;28;20384;-78
2023/06/02 07:44:05;;;;;;;15.27;4.95;;;14.30;99.90;;;;;;5050999;28;20041;-79
2023/06/02 07:46:32;;;;;;;15.05;4.97;;;14.20;99.90;;;;;;5029496;28;20037;-77
2023/06/02 07:48:58;;;;;;;15.68;4.80;;;14.20;99.90;;;;;;5021619;28;20040;-78
2023/06/02 07:51:24;;;;;;;17.52;4.95;;;14.30;99.90;;;;;;5030475;28;20140;-79
2023/06/02 07:53:50;;;;;;;17.02;4.82;;;14.30;99.90;;;;;;5048359;28;20048;-79
2023/06/02 07:56:15;;;;;;;17.00;4.82;;;14.30;99.90;;;;;;5031947;28;20483;-78
2023/06/02 07:58:41;;;;;;;15.48;4.93;;;14.40;99.90;;;;;;5031471;28;20117;-78
2023/06/02 08:01:06;;;;;;;20.60;5.57;;;14.60;99.90;;;;;;5033641;28;20415;-77
2023/06/02 08:03:32;;;;;;;17.90;5.28;;;14.70;99.90;;;;;;5049318;28;20045;-77
2023/06/02 08:05:58;;;;;;;18.38;5.30;;;14.90;99.90;;;;;;5024467;28;20124;-77
2023/06/02 08:08:23;;;;;;;16.38;5.47;;;14.90;99.90;;;;;;5049271;28;20499;-77
2023/06/02 08:10:49;;;;;;;16.13;5.28;;;15.00;99.90;;;;;;5032672;28;20040;-77
2023/06/02 08:13:18;;;;;;;18.85;5.70;;;15.00;99.90;;;;;;5115761;22;20045;-78
2023/06/02 08:15:45;;;;;;;15.30;4.75;;;15.00;99.90;;;;;;5035009;28;20040;-79
2023/06/02 08:18:18;;;;;;;24.13;6.28;;;14.90;99.90;;;;;;5042284;28;20465;-78
2023/06/02 08:20:45;;;;;;;15.13;5.38;;;14.90;99.90;;;;;;5035854;28;20041;-78
2023/06/02 08:23:17;;;;;;;16.95;5.10;;;15.00;99.90;;;;;;5059172;28;20491;-78
2023/06/02 08:25:46;;;;;;;20.30;6.40;;;15.00;99.90;;;;;;5053084;28;20495;-78
2023/06/02 08:28:13;;;;;;;15.45;5.20;;;15.20;99.90;;;;;;5053281;28;20494;-77
2023/06/02 08:30:44;;;;;;;19.27;5.53;;;15.20;99.90;;;;;;5053646;28;20495;-78
2023/06/02 08:33:10;;;;;;;20.33;6.28;;;15.30;99.90;;;;;;5052845;28;20033;-78
2023/06/02 08:35:36;;;;;;;17.63;5.47;;;15.20;99.90;;;;;;5049988;28;20523;-77
2023/06/02 08:38:07;;;;;;;20.42;6.15;;;15.30;99.90;;;;;;5052911;28;20489;-78
2023/06/02 08:40:39;;;;;;;20.48;5.95;;;15.50;99.90;;;;;;5053713;28;20398;-78
2023/06/02 08:43:08;;;;;;;18.08;5.60;;;15.60;99.90;;;;;;5053879;28;20037;-78
2023/06/02 08:45:37;;;;;;;19.10;6.55;;;15.80;99.90;;;;;;5068985;28;20036;-78
2023/06/02 08:48:13;;;;;;;17.98;6.35;;;15.90;99.90;;;;;;5052979;28;20051;-79
2023/06/02 08:50:42;;;;;;;19.15;5.40;;;16.10;99.90;;;;;;5050565;28;20036;-77
2023/06/02 08:53:14;;;;;;;15.55;6.13;;;16.30;99.90;;;;;;5052737;28;20115;-78
2023/06/02 08:55:41;;;;;;;18.25;5.38;;;16.80;99.90;;;;;;5070061;28;20041;-77
2023/06/02 08:58:10;;;;;;;15.18;5.40;;;18.00;99.90;;;;;;5050210;28;20116;-78
2023/06/02 09:00:40;;;;;;;13.95;4.97;;;19.20;99.90;;;;;;5049733;28;20036;-78
2023/06/02 09:03:06;;;;;;;19.80;6.00;;;19.60;99.90;;;;;;5055274;28;20050;-78
2023/06/02 09:05:32;;;;;;;17.95;5.50;;;19.60;99.90;;;;;;5051114;28;20124;-77
2023/06/02 09:08:10;;;;;;;14.32;5.25;;;19.40;99.90;;;;;;5055004;28;20043;-77
2023/06/02 09:10:40;;;;;;;16.05;5.45;;;19.40;99.90;;;;;;5056548;28;20106;-78
2023/06/02 09:13:10;;;;;;;14.55;4.72;;;19.70;99.90;;;;;;5073231;28;20067;-77
2023/06/02 09:15:53;;;;;;;15.90;4.47;;;20.00;99.90;;;;;;5055593;28;20044;-77
2023/06/02 09:18:19;;;;;;;16.65;5.00;;;20.50;99.90;;;;;;5051305;28;20379;-77
2023/06/02 09:20:48;;;;;;;12.98;4.53;;;21.40;99.90;;;;;;5054019;28;20043;-78
2023/06/02 09:23:14;;;;;;;18.10;5.03;;;21.70;73.50;;;;;;5057293;28;20048;-77
2023/06/02 09:25:40;;;;;;;16.17;4.80;;;21.20;75.40;;;;;;5056294;28;20534;-77
2023/06/02 09:28:07;;;;;;;15.93;5.10;;;21.20;90.70;;;;;;5071732;28;20417;-77
2023/06/02 09:30:33;;;;;;;16.00;4.97;;;21.80;97.10;;;;;;5072839;28;20040;-78
2023/06/02 09:33:05;;;;;;;14.63;4.38;;;22.50;78.70;;;;;;5072022;28;20036;-78
2023/06/02 09:35:41;;;;;;;13.65;4.55;;;22.70;69.90;;;;;;5052390;28;20040;-78
2023/06/02 09:38:10;;;;;;;15.70;5.35;;;22.00;72.20;;;;;;5055014;28;20402;-78
2023/06/02 09:40:36;;;;;;;13.57;4.63;;;21.60;69.70;;;;;;5056398;28;20094;-77
2023/06/02 09:43:04;;;;;;;15.57;4.63;;;20.80;72.90;;;;;;5055800;28;20040;-78
2023/06/02 09:45:31;;;;;;;13.65;4.90;;;20.60;75.10;;;;;;5072647;28;20399;-78
2023/06/02 09:47:57;;;;;;;13.55;4.90;;;20.70;75.00;;;;;;5054660;28;20119;-78
2023/06/02 09:50:37;;;;;;;14.25;5.55;;;21.10;80.00;;;;;;5052254;28;20198;-77
2023/06/02 09:53:05;;;;;;;13.60;4.72;;;22.00;90.00;;;;;;5070923;28;20128;-78
2023/06/02 09:55:32;;;;;;;15.38;4.85;;;23.00;75.40;;;;;;5065953;28;20080;-78
2023/06/02 09:57:59;;;;;;;15.85;5.00;;;23.60;73.60;;;;;;5055515;28;20120;-78
2023/06/02 10:00:25;;;;;;;15.32;4.35;;;24.30;68.20;;;;;;5056336;28;20046;-78
2023/06/02 10:02:51;;;;;;;11.93;4.32;;;24.60;65.00;;;;;;5052650;28;20082;-78
2023/06/02 10:05:19;;;;;;;12.65;4.55;;;24.10;65.40;;;;;;5056419;28;20071;-78
2023/06/02 10:08:03;;;;;;;13.20;4.95;;;23.70;64.10;;;;;;5046652;28;20501;-77
2023/06/02 10:10:46;;;;;;;12.90;4.63;;;23.00;66.10;;;;;;5055771;28;20080;-78
2023/06/02 10:13:40;;;;;;;11.27;4.28;;;23.10;68.90;;;;;;5071508;28;20406;-77
2023/06/02 10:16:06;;;;;;;10.73;3.90;;;23.60;66.80;;;;;;5056293;28;20056;-78
2023/06/02 10:19:06;;;;;;;13.10;3.67;;;23.50;67.80;;;;;;5055528;28;20058;-79
2023/06/02 10:21:40;;;;;;;12.73;4.53;;;23.90;67.80;;;;;;5055149;28;20032;-79
2023/06/02 10:24:33;;;;;;;10.85;3.42;;;24.10;65.60;;;;;;5056489;28;20413;-79
2023/06/02 10:27:14;;;;;;;9.73;3.83;;;24.30;63.00;;;;;;5053461;28;20093;-78
2023/06/02 10:29:41;;;;;;;10.45;3.65;;;24.10;64.10;;;;;;5072383;28;20298;-78
2023/06/02 10:32:27;;;;;;;9.93;3.60;;;23.70;63.50;;;;;;5070814;28;20067;-78
2023/06/02 10:34:54;;;;;;;10.93;3.78;;;23.10;65.30;;;;;;5072388;28;20040;-78
2023/06/02 10:37:21;;;;;;;8.43;3.13;;;22.70;64.70;;;;;;5050470;28;20033;-78
2023/06/02 10:39:51;;;;;;;11.73;3.42;;;22.20;63.40;;;;;;5051034;28;20489;-78
2023/06/02 10:42:18;;;;;;;9.55;3.47;;;22.00;65.50;;;;;;5068431;28;20134;-78
2023/06/02 10:44:47;;;;;;;10.95;3.67;;;22.80;62.50;;;;;;5055660;28;20044;-78
2023/06/02 10:47:18;;;;;;;10.73;3.40;;;23.40;61.30;;;;;;5067015;28;20123;-78
2023/06/02 10:50:07;;;;;;;8.18;2.70;;;24.00;60.90;;;;;;5054417;28;20036;-78
2023/06/02 10:52:34;;;;;;;10.85;2.67;;;24.80;59.80;;;;;;5055222;28;20111;-78
2023/06/02 10:55:13;;;;;;;9.40;2.58;;;25.50;57.70;;;;;;5052386;28;20123;-78
2023/06/02 10:57:56;;;;;;;9.35;3.00;;;26.20;56.90;;;;;;5054511;28;20047;-78
2023/06/02 11:00:38;;;;;;;8.63;2.65;;;26.70;53.70;;;;;;5069920;28;20549;-78
2023/06/02 11:03:20;;;;;;;7.93;2.67;;;26.00;54.90;;;;;;5047622;28;20055;-78
2023/06/02 11:05:47;;;;;;;7.90;2.45;;;25.10;54.50;;;;;;5050534;28;20802;-78
2023/06/02 11:08:14;;;;;;;6.47;2.80;;;24.10;54.20;;;;;;5067280;28;20073;-78
2023/06/02 11:10:48;;;;;;;7.70;2.60;;;23.10;56.70;;;;;;5050993;28;20040;-78
2023/06/02 11:13:21;;;;;;;9.73;2.88;;;22.30;59.10;;;;;;5051381;28;20041;-78
2023/06/02 11:15:58;;;;;;;8.05;2.38;;;21.90;60.20;;;;;;5062292;28;20037;-78
2023/06/02 11:18:31;;;;;;;6.90;2.60;;;21.90;58.60;;;;;;5055023;28;20043;-78
2023/06/02 11:21:02;;;;;;;6.97;2.30;;;21.50;58.90;;;;;;5050828;28;20044;-78
2023/06/02 11:23:29;;;;;;;10.35;2.90;;;21.90;59.90;;;;;;5052826;28;20039;-77
2023/06/02 11:26:01;;;;;;;6.38;2.47;;;22.80;61.40;;;;;;5051914;28;20056;-79
2023/06/02 11:28:27;;;;;;;7.10;2.33;;;24.10;58.90;;;;;;5054463;28;20494;-78
2023/06/02 11:31:13;;;;;;;6.20;2.35;;;24.90;57.10;;;;;;5060401;28;20059;-78
2023/06/02 11:33:48;;;;;;;6.80;2.63;;;25.40;55.70;;;;;;5053645;28;20122;-78
2023/06/02 11:36:14;;;;;;;7.57;2.38;;;26.10;55.00;;;;;;5071293;28;20094;-78
2023/06/02 11:38:41;;;;;;;5.43;2.30;;;26.10;51.00;;;;;;5055884;28;20041;-78
2023/06/02 11:41:13;;;;;;;8.90;2.85;;;25.20;51.80;;;;;;5055087;28;20044;-79
2023/06/02 11:43:40;;;;;;;6.38;2.65;;;24.10;53.80;;;;;;5054377;28;20139;-78
2023/06/02 11:46:07;;;;;;;6.13;2.60;;;23.50;55.30;;;;;;5044290;28;20387;-78
2023/06/02 11:48:36;;;;;;;8.25;2.65;;;23.60;55.60;;;;;;5070593;28;20048;-78
2023/06/02 11:51:05;;;;;;;7.78;2.58;;;23.90;54.70;;;;;;5054625;28;20109;-78
2023/06/02 11:53:31;;;;;;;8.00;2.40;;;23.90;54.50;;;;;;5069331;28;20154;-78
2023/06/02 11:55:57;;;;;;;6.60;2.83;;;23.50;53.70;;;;;;5052987;28;20111;-78
2023/06/02 11:58:24;;;;;;;5.97;2.40;;;22.90;54.80;;;;;;5053385;28;20124;-78
2023/06/02 12:00:52;;;;;;;5.43;2.15;;;22.60;55.30;;;;;;5040873;28;20378;-79
2023/06/02 12:03:17;;;;;;;4.95;2.25;;;22.90;55.40;;;;;;5047192;28;20376;-78
2023/06/02 12:05:45;;;;;;;5.00;1.73;;;23.40;57.30;;;;;;5050081;28;20048;-78
2023/06/02 12:08:20;;;;;;;4.88;1.67;;;23.70;55.70;;;;;;5052935;28;20055;-79
2023/06/02 12:10:46;;;;;;;6.05;2.10;;;23.70;54.70;;;;;;5053588;28;20155;-78
2023/06/02 12:13:31;;;;;;;7.03;2.50;;;23.60;55.80;;;;;;5051299;28;20112;-78
2023/06/02 12:16:24;;;;;;;5.57;2.05;;;23.40;56.50;;;;;;5044914;28;20067;-78
2023/06/02 12:18:51;;;;;;;5.85;1.70;;;23.10;58.30;;;;;;5053245;28;20032;-79
2023/06/02 12:21:28;;;;;;;4.90;2.10;;;22.90;54.10;;;;;;5053558;28;20421;-79
2023/06/02 12:23:55;;;;;;;4.45;2.03;;;22.40;54.50;;;;;;5062894;28;20048;-79
2023/06/02 12:26:22;;;;;;;4.38;1.98;;;22.10;54.70;;;;;;5045454;28;20127;-79
2023/06/02 12:28:49;;;;;;;5.32;2.17;;;21.70;55.90;;;;;;5051334;28;20097;-78
2023/06/02 12:31:18;;;;;;;5.45;2.38;;;21.50;55.90;;;;;;5053507;28;20093;-79
2023/06/02 12:33:45;;;;;;;5.32;1.95;;;21.30;56.10;;;;;;5052081;28;20405;-79
2023/06/02 12:36:13;;;;;;;4.65;1.95;;;21.30;57.30;;;;;;5076355;28;20044;-79
2023/06/02 12:38:43;;;;;;;8.00;2.10;;;21.80;57.20;;;;;;5060505;28;20040;-79
2023/06/02 12:41:11;;;;;;;5.97;2.20;;;21.80;56.60;;;;;;5060602;28;20124;-79
2023/06/02 12:43:42;;;;;;;4.28;2.20;;;22.20;57.00;;;;;;5056152;28;20048;-79
2023/06/02 12:46:11;;;;;;;5.32;2.00;;;22.90;55.50;;;;;;5054155;28;20041;-78